createdAt,value
2023-01-09T00:01:44.103Z,61.11
2023-01-09T00:04:52.324Z,61.12
2023-01-09T00:07:58.571Z,61.66
2023-01-09T00:11:04.190Z,61.37
2023-01-09T00:14:11.201Z,61.78
2023-01-09T00:17:16.666Z,61.74
2023-01-09T00:20:25.812Z,62.21
2023-01-09T00:23:31.182Z,62.14
2023-01-09T00:26:38.002Z,62.18
2023-01-09T00:29:47.838Z,62.55
2023-01-09T00:32:54.220Z,62.59
2023-01-09T00:36:03.251Z,62.49
2023-01-09T00:39:09.516Z,63.16
2023-01-09T00:42:22.261Z,62.63
2023-01-09T00:45:33.624Z,62.45
2023-01-09T00:48:43.860Z,62.84
2023-01-09T00:51:54.282Z,62.93
2023-01-09T00:55:03.127Z,62.99
2023-01-09T00:58:10.226Z,63.60
2023-01-09T01:01:16.229Z,63.42
2023-01-09T01:04:38.563Z,62.80
2023-01-09T01:07:46.964Z,63.66
2023-01-09T01:10:53.286Z,63.48
2023-01-09T01:13:59.736Z,62.89
2023-01-09T01:17:06.614Z,63.34
2023-01-09T01:20:17.789Z,63.38
2023-01-09T01:23:26.875Z,63.68
2023-01-09T01:26:32.244Z,63.20
2023-01-09T01:29:38.475Z,63.95
2023-01-09T01:32:44.395Z,63.34
2023-01-09T01:35:50.649Z,63.69
2023-01-09T01:38:59.087Z,63.51
2023-01-09T01:42:07.152Z,64.34
2023-01-09T01:45:19.668Z,63.77
2023-01-09T01:48:32.514Z,63.03
2023-01-09T01:51:46.124Z,63.43
2023-01-09T01:54:56.575Z,63.45
2023-01-09T01:58:10.750Z,63.55
2023-01-09T02:01:18.743Z,64.11
2023-01-09T02:04:24.569Z,63.51
2023-01-09T02:07:31.523Z,64.30
2023-01-09T02:10:42.586Z,63.80
2023-01-09T02:13:50.024Z,63.59
2023-01-09T02:17:08.772Z,63.73
2023-01-09T02:20:41.455Z,64.04
2023-01-09T02:24:13.584Z,63.61
2023-01-09T02:28:05.335Z,63.08
2023-01-09T02:31:25.203Z,63.86
2023-01-09T02:34:49.592Z,63.33
2023-01-09T02:38:13.320Z,63.56
2023-01-09T02:41:31.125Z,63.66
2023-01-09T02:44:38.709Z,63.75
2023-01-09T02:47:50.406Z,63.60
2023-01-09T02:51:16.214Z,64.76
2023-01-09T02:54:48.484Z,63.70
2023-01-09T02:58:12.509Z,64.30
2023-01-09T03:01:35.217Z,64.43
2023-01-09T03:05:00.979Z,63.95
2023-01-09T03:08:16.316Z,64.32
2023-01-09T03:11:22.245Z,64.22
2023-01-09T03:14:30.916Z,63.96
2023-01-09T03:17:46.246Z,63.83
2023-01-09T03:20:58.242Z,64.52
2023-01-09T03:24:06.379Z,63.64
2023-01-09T03:27:12.866Z,63.94
2023-01-09T03:30:19.227Z,64.71
2023-01-09T03:33:25.516Z,64.53
2023-01-09T03:36:34.189Z,63.88
2023-01-09T03:39:40.956Z,64.70
2023-01-09T03:42:46.275Z,64.68
2023-01-09T03:45:58.337Z,63.81
2023-01-09T03:49:11.743Z,64.44
2023-01-09T03:52:23.651Z,63.85
2023-01-09T03:55:29.047Z,64.45
2023-01-09T03:58:35.283Z,64.48
2023-01-09T04:01:40.851Z,64.25
2023-01-09T04:04:47.404Z,63.73
2023-01-09T04:07:55.596Z,63.88
2023-01-09T04:11:02.150Z,64.51
2023-01-09T04:14:07.530Z,64.29
2023-01-09T04:17:13.772Z,64.71
2023-01-09T04:20:19.702Z,63.90
2023-01-09T04:23:28.833Z,64.42
2023-01-09T04:26:34.228Z,64.11
2023-01-09T04:29:40.529Z,63.73
2023-01-09T04:32:46.241Z,63.61
2023-01-09T04:35:52.617Z,63.58
2023-01-09T04:39:00.797Z,63.75
2023-01-09T04:42:07.434Z,64.58
2023-01-09T04:45:15.778Z,64.75
2023-01-09T04:48:22.168Z,63.83
2023-01-09T04:51:27.542Z,64.78
2023-01-09T04:54:37.096Z,64.09
2023-01-09T04:57:42.481Z,63.96
2023-01-09T05:00:48.779Z,64.46
2023-01-09T05:03:54.712Z,63.90
2023-01-09T05:07:00.974Z,64.14
2023-01-09T05:10:12.587Z,64.12
2023-01-09T05:13:18.786Z,65.25
2023-01-09T05:16:25.162Z,63.98
2023-01-09T05:19:31.458Z,64.90
2023-01-09T05:22:36.847Z,64.23
2023-01-09T05:25:45.871Z,64.61
2023-01-09T05:28:51.240Z,63.71
2023-01-09T05:31:57.493Z,63.64
2023-01-09T05:35:03.051Z,63.78
2023-01-09T05:38:09.276Z,64.44
2023-01-09T05:41:17.484Z,64.14
2023-01-09T05:44:23.800Z,64.25
2023-01-09T05:47:29.188Z,64.10
2023-01-09T05:50:35.515Z,63.67
2023-01-09T05:53:41.109Z,62.84
2023-01-09T05:56:50.084Z,63.67
2023-01-09T05:59:55.523Z,63.45
2023-01-09T06:03:02.349Z,63.41
2023-01-09T06:06:08.214Z,62.66
2023-01-09T06:09:14.750Z,62.65
2023-01-09T06:12:23.088Z,62.57
2023-01-09T06:15:29.409Z,63.13
2023-01-09T06:18:34.724Z,62.76
2023-01-09T06:21:41.171Z,62.51
2023-01-09T06:24:46.579Z,63.35
2023-01-09T06:27:55.667Z,62.80
2023-01-09T06:31:01.118Z,62.41
2023-01-09T06:34:07.530Z,62.62
2023-01-09T06:37:13.722Z,63.64
2023-01-09T06:40:21.393Z,62.63
2023-01-09T06:43:29.724Z,63.91
2023-01-09T06:46:35.977Z,62.81
2023-01-09T06:49:41.449Z,63.75
2023-01-09T06:52:47.664Z,63.49
2023-01-09T06:55:53.164Z,63.85
2023-01-09T06:59:02.198Z,63.96
2023-01-09T07:02:07.624Z,64.00
2023-01-09T07:05:14.560Z,65.28
2023-01-09T07:08:20.123Z,65.06
2023-01-09T07:11:26.388Z,65.04
2023-01-09T07:14:34.653Z,66.08
2023-01-09T07:17:41.103Z,66.70
2023-01-09T07:20:46.561Z,66.24
2023-01-09T07:23:53.202Z,66.55
2023-01-09T07:26:58.680Z,67.24
2023-01-09T07:30:10.060Z,67.01
2023-01-09T07:33:15.472Z,67.77
2023-01-09T07:36:22.124Z,67.63
2023-01-09T07:39:27.613Z,67.21
2023-01-09T07:42:34.108Z,67.43
2023-01-09T07:45:42.358Z,67.77
2023-01-09T07:48:48.681Z,68.58
2023-01-09T07:51:54.135Z,68.01
2023-01-09T07:55:00.442Z,67.77
2023-01-09T07:58:06.037Z,67.54
2023-01-09T08:01:15.354Z,67.43
2023-01-09T08:04:20.873Z,67.90
2023-01-09T08:07:27.393Z,67.96
2023-01-09T08:10:32.862Z,67.82
2023-01-09T08:13:39.222Z,67.83
2023-01-09T08:16:47.607Z,67.67
2023-01-09T08:19:53.875Z,67.87
2023-01-09T08:22:59.293Z,67.26
2023-01-09T08:26:05.596Z,67.67
2023-01-09T08:29:10.958Z,67.60
2023-01-09T08:32:19.982Z,67.20
2023-01-09T08:35:25.434Z,67.68
2023-01-09T08:38:31.775Z,67.39
2023-01-09T08:41:52.947Z,67.05
2023-01-09T08:45:26.500Z,66.77
2023-01-09T08:48:34.779Z,66.38
2023-01-09T08:51:41.493Z,66.42
2023-01-09T08:54:46.945Z,65.93
2023-01-09T08:57:55.150Z,65.87
2023-01-09T09:01:03.713Z,65.33
2023-01-09T09:04:13.961Z,64.95
2023-01-09T09:07:26.399Z,65.12
2023-01-09T09:10:33.890Z,64.97
2023-01-09T09:13:39.289Z,65.16
2023-01-09T09:16:45.572Z,64.56
2023-01-09T09:19:53.978Z,64.97
2023-01-09T09:23:02.174Z,65.05
2023-01-09T09:26:08.768Z,65.17
2023-01-09T09:29:15.634Z,64.96
2023-01-09T09:32:21.356Z,65.14
2023-01-09T09:35:32.596Z,64.79
2023-01-09T09:38:37.988Z,65.23
2023-01-09T09:42:39.546Z,64.94
2023-01-09T09:46:00.801Z,65.31
2023-01-09T09:49:21.426Z,65.40
2023-01-09T09:52:45.150Z,65.89
2023-01-09T09:55:54.534Z,65.60
2023-01-09T09:59:08.876Z,64.90
2023-01-09T10:02:33.209Z,65.41
2023-01-09T10:05:45.560Z,65.97
2023-01-09T10:09:09.195Z,65.51
2023-01-09T10:12:32.389Z,65.30
2023-01-09T10:15:54.353Z,65.47
2023-01-09T10:19:24.385Z,65.77
2023-01-09T10:22:50.897Z,64.99
2023-01-09T10:26:08.739Z,65.68
2023-01-09T10:29:44.804Z,65.54
2023-01-09T10:33:14.455Z,64.98
2023-01-09T10:37:01.917Z,64.83
2023-01-09T10:40:28.764Z,65.07
2023-01-09T10:43:49.591Z,64.03
2023-01-09T10:46:59.555Z,63.34
2023-01-09T10:50:24.289Z,64.74
2023-01-09T10:53:39.164Z,64.59
2023-01-09T10:56:57.618Z,64.07
2023-01-09T11:00:07.762Z,63.97
2023-01-09T11:03:16.727Z,64.17
2023-01-09T11:06:33.065Z,64.29
2023-01-09T11:10:02.885Z,64.57
2023-01-09T11:13:23.147Z,64.18
2023-01-09T11:16:32.249Z,63.95
2023-01-09T11:19:37.870Z,64.82
2023-01-09T11:22:48.307Z,64.82
2023-01-09T11:25:57.344Z,64.90
2023-01-09T11:29:14.900Z,65.19
2023-01-09T11:32:36.034Z,64.71
2023-01-09T11:35:52.708Z,65.60
2023-01-09T11:39:03.029Z,65.65
2023-01-09T11:42:43.412Z,65.35
2023-01-09T11:46:00.975Z,66.24
2023-01-09T11:49:26.321Z,65.10
2023-01-09T11:52:31.735Z,66.43
2023-01-09T11:55:42.891Z,65.88
2023-01-09T11:58:48.697Z,66.18
2023-01-09T12:02:31.244Z,65.99
2023-01-09T12:05:58.165Z,65.76
2023-01-09T12:09:09.399Z,66.17
2023-01-09T12:12:33.526Z,66.79
2023-01-09T12:15:58.888Z,66.75
2023-01-09T12:19:30.059Z,66.61
2023-01-09T12:22:52.439Z,65.76
2023-01-09T12:26:19.503Z,66.03
2023-01-09T12:30:07.862Z,66.63
2023-01-09T12:33:35.543Z,66.17
2023-01-09T12:37:14.062Z,66.33
2023-01-09T12:40:53.909Z,66.28
2023-01-09T12:44:35.976Z,66.02
2023-01-09T12:47:49.843Z,65.25
2023-01-09T12:51:28.863Z,65.00
2023-01-09T12:54:46.330Z,65.01
2023-01-09T12:58:03.271Z,64.91
2023-01-09T13:01:18.437Z,64.46
2023-01-09T13:04:35.139Z,65.29
2023-01-09T13:07:49.777Z,64.32
2023-01-09T13:11:18.841Z,64.41
2023-01-09T13:14:49.201Z,64.27
2023-01-09T13:18:03.146Z,64.47
2023-01-09T13:21:09.616Z,64.65
2023-01-09T13:24:27.961Z,64.35
2023-01-09T13:27:42.772Z,64.33
2023-01-09T13:31:28.661Z,63.84
2023-01-09T13:34:40.215Z,64.62
2023-01-09T13:37:56.513Z,64.79
2023-01-09T13:41:32.608Z,64.54
2023-01-09T13:44:39.396Z,64.57
2023-01-09T13:47:48.641Z,64.62
2023-01-09T13:50:56.100Z,64.99
2023-01-09T13:54:01.638Z,64.87
2023-01-09T13:57:31.510Z,65.20
2023-01-09T14:00:59.839Z,64.76
2023-01-09T14:04:48.565Z,64.90
2023-01-09T14:08:10.533Z,64.73
2023-01-09T14:11:31.161Z,65.11
2023-01-09T14:14:43.652Z,65.15
2023-01-09T14:17:50.100Z,66.04
2023-01-09T14:21:04.484Z,66.25
2023-01-09T14:24:22.854Z,65.68
2023-01-09T14:28:12.403Z,66.37
2023-01-09T14:31:35.172Z,66.50
2023-01-09T14:34:43.985Z,66.00
2023-01-09T14:38:25.476Z,66.39
2023-01-09T14:41:57.061Z,66.05
2023-01-09T14:45:10.639Z,66.65
2023-01-09T14:48:19.608Z,66.34
2023-01-09T14:51:32.419Z,66.58
2023-01-09T14:54:46.748Z,66.32
2023-01-09T14:57:55.215Z,66.41
2023-01-09T15:01:07.560Z,67.30
2023-01-09T15:04:32.548Z,66.99
2023-01-09T15:07:47.268Z,67.19
2023-01-09T15:10:59.645Z,67.75
2023-01-09T15:14:05.611Z,67.88
2023-01-09T15:17:25.466Z,68.16
2023-01-09T15:20:35.942Z,67.82
2023-01-09T15:23:42.439Z,67.75
2023-01-09T15:26:57.412Z,67.31
2023-01-09T15:30:21.648Z,68.28
2023-01-09T15:33:28.078Z,67.29
2023-01-09T15:36:34.815Z,67.50
2023-01-09T15:39:41.131Z,67.60
2023-01-09T15:43:01.270Z,68.02
2023-01-09T15:46:07.015Z,67.90
2023-01-09T15:49:17.110Z,68.29
2023-01-09T15:52:25.411Z,68.34
2023-01-09T15:55:38.726Z,67.88
2023-01-09T15:58:49.890Z,68.59
2023-01-09T16:02:15.755Z,68.32
2023-01-09T16:05:23.599Z,68.50
2023-01-09T16:08:35.121Z,68.17
2023-01-09T16:11:42.349Z,68.65
2023-01-09T16:14:57.366Z,68.16
2023-01-09T16:18:10.581Z,67.93
2023-01-09T16:21:38.049Z,67.71
2023-01-09T16:24:45.197Z,68.25
2023-01-09T16:28:22.147Z,67.85
2023-01-09T16:31:33.808Z,67.90
2023-01-09T16:34:47.769Z,68.07
2023-01-09T16:37:53.201Z,68.37
2023-01-09T16:41:24.787Z,68.24
2023-01-09T16:44:30.234Z,67.75
2023-01-09T16:47:39.256Z,68.27
2023-01-09T16:50:45.743Z,67.74
2023-01-09T16:53:53.350Z,67.32
2023-01-09T16:56:59.378Z,67.73
2023-01-09T17:00:07.601Z,67.35
2023-01-09T17:03:17.983Z,67.28
2023-01-09T17:06:31.304Z,67.35
2023-01-09T17:09:37.860Z,67.69
2023-01-09T17:12:46.889Z,67.48
2023-01-09T17:15:53.984Z,67.25
2023-01-09T17:19:03.004Z,66.97
2023-01-09T17:22:08.769Z,67.33
2023-01-09T17:25:34.092Z,66.86
2023-01-09T17:28:40.347Z,67.33
2023-01-09T17:31:46.844Z,66.90
2023-01-09T17:35:02.536Z,66.37
2023-01-09T17:38:09.437Z,66.38
2023-01-09T17:41:16.180Z,65.93
2023-01-09T17:44:22.698Z,65.80
2023-01-09T17:47:28.131Z,65.14
2023-01-09T17:50:37.250Z,64.66
2023-01-09T17:53:42.709Z,65.77
2023-01-09T17:56:54.464Z,64.85
2023-01-09T17:59:59.961Z,65.63
2023-01-09T18:03:08.110Z,65.50
2023-01-09T18:06:18.611Z,65.02
2023-01-09T18:09:25.132Z,65.89
2023-01-09T18:12:30.520Z,65.19
2023-01-09T18:15:37.525Z,64.70
2023-01-09T18:18:45.173Z,64.89
2023-01-09T18:21:54.333Z,64.97
2023-01-09T18:24:59.741Z,64.70
2023-01-09T18:28:06.108Z,65.11
2023-01-09T18:31:11.780Z,65.33
2023-01-09T18:34:18.109Z,65.77
2023-01-09T18:37:27.144Z,65.20
2023-01-09T18:40:33.385Z,65.87
2023-01-09T18:43:38.765Z,65.77
2023-01-09T18:46:47.228Z,66.03
2023-01-09T18:49:52.546Z,65.76
2023-01-09T18:53:01.529Z,66.05
2023-01-09T18:56:08.530Z,65.49
2023-01-09T18:59:15.034Z,65.57
2023-01-09T19:02:24.678Z,65.10
2023-01-09T19:05:31.198Z,65.57
2023-01-09T19:08:40.368Z,64.95
2023-01-09T19:11:47.711Z,65.52
2023-01-09T19:14:53.333Z,64.87
2023-01-09T19:17:59.601Z,65.36
2023-01-09T19:21:05.766Z,64.84
2023-01-09T19:24:15.010Z,65.15
2023-01-09T19:27:20.434Z,65.12
2023-01-09T19:30:27.273Z,64.85
2023-01-09T19:33:32.659Z,64.85
2023-01-09T19:36:39.225Z,64.62
2023-01-09T19:39:47.781Z,64.61
2023-01-09T19:42:56.843Z,65.06
2023-01-09T19:46:02.736Z,65.01
2023-01-09T19:49:09.324Z,64.86
2023-01-09T19:52:14.924Z,65.76
2023-01-09T19:55:24.712Z,65.59
2023-01-09T19:58:30.103Z,64.80
2023-01-09T20:01:40.087Z,65.26
2023-01-09T20:04:46.961Z,64.55
2023-01-09T20:07:57.875Z,65.01
2023-01-09T20:11:09.855Z,64.53
2023-01-09T20:14:18.863Z,64.48
2023-01-09T20:17:24.293Z,64.51
2023-01-09T20:20:30.600Z,64.22
2023-01-09T20:23:37.912Z,63.95
2023-01-09T20:26:50.272Z,64.25
2023-01-09T20:29:55.952Z,64.19
2023-01-09T20:33:02.777Z,63.75
2023-01-09T20:36:09.750Z,63.83
2023-01-09T20:39:16.305Z,63.92
2023-01-09T20:42:24.570Z,63.89
2023-01-09T20:45:31.014Z,64.09
2023-01-09T20:48:36.696Z,64.14
2023-01-09T20:51:46.983Z,63.91
2023-01-09T20:54:52.734Z,64.23
2023-01-09T20:58:02.251Z,64.07
2023-01-09T21:01:10.178Z,63.73
2023-01-09T21:04:18.190Z,63.59
2023-01-09T21:07:23.723Z,63.54
2023-01-09T21:10:29.980Z,63.61
2023-01-09T21:13:38.500Z,63.85
2023-01-09T21:16:53.696Z,63.68
2023-01-09T21:20:00.175Z,64.00
2023-01-09T21:23:06.351Z,63.83
2023-01-09T21:26:13.559Z,64.26
2023-01-09T21:29:22.725Z,63.96
2023-01-09T21:32:28.254Z,63.94
2023-01-09T21:35:35.298Z,64.04
2023-01-09T21:38:41.536Z,64.25
2023-01-09T21:42:03.535Z,64.24
2023-01-09T21:45:33.291Z,64.23
2023-01-09T21:48:40.538Z,64.35
2023-01-09T21:51:46.679Z,64.59
2023-01-09T21:54:53.402Z,64.84
2023-01-09T21:57:59.854Z,64.98
2023-01-09T22:01:08.935Z,65.06
2023-01-09T22:04:18.157Z,65.00
2023-01-09T22:07:24.547Z,64.75
2023-01-09T22:10:29.866Z,64.76
2023-01-09T22:13:36.144Z,65.03
2023-01-09T22:16:44.946Z,64.37
2023-01-09T22:19:51.374Z,64.41
2023-01-09T22:22:56.744Z,64.28
2023-01-09T22:26:09.325Z,64.33
2023-01-09T22:29:16.223Z,64.06
2023-01-09T22:32:25.575Z,64.29
2023-01-09T22:35:31.041Z,64.32
2023-01-09T22:38:37.670Z,64.51
2023-01-09T22:41:43.903Z,64.45
2023-01-09T22:44:50.125Z,64.85
2023-01-09T22:47:58.881Z,65.05
2023-01-09T22:51:07.000Z,65.19
2023-01-09T22:54:12.462Z,65.03
2023-01-09T22:57:18.783Z,65.10
2023-01-09T23:00:24.351Z,65.36
2023-01-09T23:03:33.441Z,65.25
2023-01-09T23:06:38.852Z,65.56
2023-01-09T23:09:46.154Z,65.50
2023-01-09T23:12:51.490Z,65.17
2023-01-09T23:15:58.648Z,65.04
2023-01-09T23:19:10.049Z,65.44
2023-01-09T23:22:16.738Z,65.55
2023-01-09T23:25:22.094Z,65.63
2023-01-09T23:28:30.789Z,65.32
2023-01-09T23:31:37.455Z,65.27
2023-01-09T23:34:47.547Z,65.35
2023-01-09T23:37:52.875Z,65.33
2023-01-09T23:41:00.465Z,64.97
2023-01-09T23:44:03.181Z,65.54
2023-01-09T23:47:09.444Z,65.23
2023-01-09T23:50:17.914Z,65.03
2023-01-09T23:53:26.414Z,65.41
2023-01-09T23:56:34.076Z,64.80
2023-01-09T23:59:40.381Z,65.47
